sensor_id;sensor_type;location;lat;lon;timestamp;pressure;altitude;pressure_sealevel;temperature;humidity
56040;BME280;43937;41.366;2.072;2023-07-29T00:00:50;100666.78;;;28.87;70.55
56040;BME280;43937;41.366;2.072;2023-07-29T00:03:15;100633.25;;;28.71;70.25
56040;BME280;43937;41.366;2.072;2023-07-29T00:05:41;100653.34;;;28.84;69.98
56040;BME280;43937;41.366;2.072;2023-07-29T00:08:06;100661.69;;;28.89;69.69
56040;BME280;43937;41.366;2.072;2023-07-29T00:10:34;100623.72;;;28.72;70.24
56040;BME280;43937;41.366;2.072;2023-07-29T00:13:00;100660.59;;;28.90;70.28
56040;BME280;43937;41.366;2.072;2023-07-29T00:15:26;100644.97;;;28.79;70.08
56040;BME280;43937;41.366;2.072;2023-07-29T00:17:51;100660.63;;;28.85;69.97
56040;BME280;43937;41.366;2.072;2023-07-29T00:20:17;100659.53;;;28.81;70.94
56040;BME280;43937;41.366;2.072;2023-07-29T00:22:42;100662.91;;;28.77;70.62
56040;BME280;43937;41.366;2.072;2023-07-29T00:25:08;100665.19;;;28.70;70.48
56040;BME280;43937;41.366;2.072;2023-07-29T00:27:33;100654.81;;;28.71;70.67
56040;BME280;43937;41.366;2.072;2023-07-29T00:29:59;100651.19;;;28.70;70.29
56040;BME280;43937;41.366;2.072;2023-07-29T00:32:25;100636.44;;;28.60;70.40
56040;BME280;43937;41.366;2.072;2023-07-29T00:34:50;100644.75;;;28.70;70.34
56040;BME280;43937;41.366;2.072;2023-07-29T00:37:16;100643.97;;;28.59;70.38
56040;BME280;43937;41.366;2.072;2023-07-29T00:39:41;100635.91;;;28.52;71.10
56040;BME280;43937;41.366;2.072;2023-07-29T00:42:06;100603.28;;;28.22;71.52
56040;BME280;43937;41.366;2.072;2023-07-29T00:44:32;100632.28;;;28.47;70.68
56040;BME280;43937;41.366;2.072;2023-07-29T00:46:58;100595.41;;;28.29;71.11
56040;BME280;43937;41.366;2.072;2023-07-29T00:49:26;100615.53;;;28.42;71.30
56040;BME280;43937;41.366;2.072;2023-07-29T00:51:51;100620.84;;;28.43;70.53
56040;BME280;43937;41.366;2.072;2023-07-29T00:54:17;100625.03;;;28.41;70.81
56040;BME280;43937;41.366;2.072;2023-07-29T00:56:42;100615.53;;;28.37;71.29
56040;BME280;43937;41.366;2.072;2023-07-29T00:59:08;100613.00;;;28.35;71.59
56040;BME280;43937;41.366;2.072;2023-07-29T01:01:33;100606.31;;;28.31;71.76
56040;BME280;43937;41.366;2.072;2023-07-29T01:03:59;100605.16;;;28.37;71.22
56040;BME280;43937;41.366;2.072;2023-07-29T01:07:03;100602.66;;;28.41;71.18
56040;BME280;43937;41.366;2.072;2023-07-29T01:13:30;100600.91;;;28.50;71.17
56040;BME280;43937;41.366;2.072;2023-07-29T01:16:21;100604.56;;;28.50;70.39
56040;BME280;43937;41.366;2.072;2023-07-29T01:18:51;100603.47;;;28.41;70.44
56040;BME280;43937;41.366;2.072;2023-07-29T01:21:19;100600.69;;;28.41;70.98
56040;BME280;43937;41.366;2.072;2023-07-29T01:23:46;100602.91;;;28.39;70.88
56040;BME280;43937;41.366;2.072;2023-07-29T01:26:11;100592.13;;;28.17;71.10
56040;BME280;43937;41.366;2.072;2023-07-29T01:28:37;100601.53;;;28.31;70.91
56040;BME280;43937;41.366;2.072;2023-07-29T01:31:23;100606.38;;;28.21;70.42
56040;BME280;43937;41.366;2.072;2023-07-29T01:34:07;100587.72;;;27.96;71.27
56040;BME280;43937;41.366;2.072;2023-07-29T01:36:35;100603.91;;;28.14;71.20
56040;BME280;43937;41.366;2.072;2023-07-29T01:39:05;100613.47;;;28.03;72.04
56040;BME280;43937;41.366;2.072;2023-07-29T01:41:30;100598.13;;;27.90;72.12
56040;BME280;43937;41.366;2.072;2023-07-29T01:43:56;100609.25;;;28.00;71.65
56040;BME280;43937;41.366;2.072;2023-07-29T01:46:22;100587.22;;;27.89;71.88
56040;BME280;43937;41.366;2.072;2023-07-29T01:48:48;100599.22;;;27.94;71.96
56040;BME280;43937;41.366;2.072;2023-07-29T01:51:14;100603.94;;;28.04;71.54
56040;BME280;43937;41.366;2.072;2023-07-29T01:53:39;100608.44;;;27.95;72.12
56040;BME280;43937;41.366;2.072;2023-07-29T01:58:05;100600.94;;;27.85;72.35
56040;BME280;43937;41.366;2.072;2023-07-29T02:00:31;100600.09;;;27.84;72.56
56040;BME280;43937;41.366;2.072;2023-07-29T02:02:56;100596.47;;;27.84;72.33
56040;BME280;43937;41.366;2.072;2023-07-29T02:05:22;100597.03;;;27.81;72.88
56040;BME280;43937;41.366;2.072;2023-07-29T02:07:47;100600.94;;;27.80;73.47
56040;BME280;43937;41.366;2.072;2023-07-29T02:10:12;100598.16;;;27.80;73.09
56040;BME280;43937;41.366;2.072;2023-07-29T02:12:38;100590.59;;;27.70;72.88
56040;BME280;43937;41.366;2.072;2023-07-29T02:15:04;100590.03;;;27.73;73.77
56040;BME280;43937;41.366;2.072;2023-07-29T02:17:30;100588.38;;;27.72;73.77
56040;BME280;43937;41.366;2.072;2023-07-29T02:19:56;100569.94;;;27.61;73.40
56040;BME280;43937;41.366;2.072;2023-07-29T02:22:21;100592.84;;;27.68;74.28
56040;BME280;43937;41.366;2.072;2023-07-29T02:24:47;100563.81;;;27.54;74.11
56040;BME280;43937;41.366;2.072;2023-07-29T02:27:12;100591.22;;;27.57;73.54
56040;BME280;43937;41.366;2.072;2023-07-29T02:29:38;100579.47;;;27.60;73.90
56040;BME280;43937;41.366;2.072;2023-07-29T02:32:03;100576.69;;;27.55;73.91
56040;BME280;43937;41.366;2.072;2023-07-29T02:34:29;100576.72;;;27.45;74.80
56040;BME280;43937;41.366;2.072;2023-07-29T02:36:55;100575.28;;;27.52;74.03
56040;BME280;43937;41.366;2.072;2023-07-29T02:40:14;100572.75;;;27.61;73.30
56040;BME280;43937;41.366;2.072;2023-07-29T02:42:39;100557.09;;;27.50;74.42
56040;BME280;43937;41.366;2.072;2023-07-29T02:45:05;100571.09;;;27.50;74.76
56040;BME280;43937;41.366;2.072;2023-07-29T02:47:34;100570.53;;;27.53;74.71
56040;BME280;43937;41.366;2.072;2023-07-29T02:50:00;100572.47;;;27.57;74.28
56040;BME280;43937;41.366;2.072;2023-07-29T02:52:25;100554.34;;;27.45;73.87
56040;BME280;43937;41.366;2.072;2023-07-29T02:54:51;100573.31;;;27.53;74.42
56040;BME280;43937;41.366;2.072;2023-07-29T02:57:16;100545.72;;;27.36;73.81
56040;BME280;43937;41.366;2.072;2023-07-29T02:59:42;100557.72;;;27.42;74.47
56040;BME280;43937;41.366;2.072;2023-07-29T03:02:08;100571.69;;;27.42;73.89
56040;BME280;43937;41.366;2.072;2023-07-29T03:04:33;100574.50;;;27.42;73.69
56040;BME280;43937;41.366;2.072;2023-07-29T03:06:58;100551.03;;;27.32;74.39
56040;BME280;43937;41.366;2.072;2023-07-29T03:09:25;100564.97;;;27.37;74.64
56040;BME280;43937;41.366;2.072;2023-07-29T03:11:50;100568.63;;;27.23;75.60
56040;BME280;43937;41.366;2.072;2023-07-29T03:14:17;100570.06;;;27.15;75.40
56040;BME280;43937;41.366;2.072;2023-07-29T03:16:43;100573.38;;;27.07;76.55
56040;BME280;43937;41.366;2.072;2023-07-29T03:19:08;100570.03;;;27.00;76.86
56040;BME280;43937;41.366;2.072;2023-07-29T03:21:34;100558.59;;;26.96;77.38
56040;BME280;43937;41.366;2.072;2023-07-29T03:23:59;100534.28;;;26.86;76.73
56040;BME280;43937;41.366;2.072;2023-07-29T03:26:25;100539.31;;;26.94;77.00
56040;BME280;43937;41.366;2.072;2023-07-29T03:28:51;100569.19;;;26.89;78.06
56040;BME280;43937;41.366;2.072;2023-07-29T03:31:16;100560.56;;;26.90;78.25
56040;BME280;43937;41.366;2.072;2023-07-29T03:33:42;100556.91;;;26.90;77.94
56040;BME280;43937;41.366;2.072;2023-07-29T03:36:07;100557.19;;;26.88;77.44
56040;BME280;43937;41.366;2.072;2023-07-29T03:38:33;100550.50;;;27.00;77.62
56040;BME280;43937;41.366;2.072;2023-07-29T03:41:00;100553.84;;;26.91;77.95
56040;BME280;43937;41.366;2.072;2023-07-29T03:43:28;100560.53;;;27.01;77.50
56040;BME280;43937;41.366;2.072;2023-07-29T03:45:53;100515.59;;;26.77;77.45
56040;BME280;43937;41.366;2.072;2023-07-29T03:48:18;100556.34;;;26.78;78.99
56040;BME280;43937;41.366;2.072;2023-07-29T03:50:44;100556.09;;;26.84;78.41
56040;BME280;43937;41.366;2.072;2023-07-29T03:53:09;100549.09;;;26.82;78.88
56040;BME280;43937;41.366;2.072;2023-07-29T03:55:35;100524.81;;;26.57;79.32
56040;BME280;43937;41.366;2.072;2023-07-29T03:58:01;100555.22;;;26.68;78.99
56040;BME280;43937;41.366;2.072;2023-07-29T04:00:26;100553.28;;;26.74;79.76
56040;BME280;43937;41.366;2.072;2023-07-29T04:02:52;100557.75;;;26.80;79.28
56040;BME280;43937;41.366;2.072;2023-07-29T04:05:18;100553.84;;;26.76;79.16
56040;BME280;43937;41.366;2.072;2023-07-29T04:07:43;100553.28;;;26.79;79.33
56040;BME280;43937;41.366;2.072;2023-07-29T04:10:09;100563.91;;;26.72;79.25
56040;BME280;43937;41.366;2.072;2023-07-29T04:12:35;100544.88;;;26.59;79.73
56040;BME280;43937;41.366;2.072;2023-07-29T04:15:13;100558.31;;;26.67;79.66
56040;BME280;43937;41.366;2.072;2023-07-29T04:17:39;100555.22;;;26.73;79.70
56040;BME280;43937;41.366;2.072;2023-07-29T04:20:04;100559.44;;;26.66;79.71
56040;BME280;43937;41.366;2.072;2023-07-29T04:22:30;100552.44;;;26.63;79.31
56040;BME280;43937;41.366;2.072;2023-07-29T04:24:55;100554.94;;;26.65;80.16
56040;BME280;43937;41.366;2.072;2023-07-29T04:27:21;100559.72;;;26.69;79.76
56040;BME280;43937;41.366;2.072;2023-07-29T04:29:46;100555.22;;;26.68;79.82
56040;BME280;43937;41.366;2.072;2023-07-29T04:32:12;100556.34;;;26.57;80.48
56040;BME280;43937;41.366;2.072;2023-07-29T04:34:37;100561.66;;;26.64;80.98
56040;BME280;43937;41.366;2.072;2023-07-29T04:37:03;100562.22;;;26.61;80.75
56040;BME280;43937;41.366;2.072;2023-07-29T04:39:28;100549.94;;;26.57;80.77
56040;BME280;43937;41.366;2.072;2023-07-29T04:41:53;100566.13;;;26.80;79.88
56040;BME280;43937;41.366;2.072;2023-07-29T04:44:19;100569.22;;;26.79;80.54
56040;BME280;43937;41.366;2.072;2023-07-29T04:46:44;100554.66;;;26.71;79.43
56040;BME280;43937;41.366;2.072;2023-07-29T04:49:10;100568.94;;;26.75;79.65
56040;BME280;43937;41.366;2.072;2023-07-29T04:51:35;100563.88;;;26.67;80.35
56040;BME280;43937;41.366;2.072;2023-07-29T04:54:02;100559.44;;;26.76;80.39
56040;BME280;43937;41.366;2.072;2023-07-29T04:56:27;100566.38;;;26.84;79.55
56040;BME280;43937;41.366;2.072;2023-07-29T04:58:53;100571.72;;;26.90;79.37
56040;BME280;43937;41.366;2.072;2023-07-29T05:01:19;100565.56;;;26.88;78.69
56040;BME280;43937;41.366;2.072;2023-07-29T05:03:44;100552.16;;;26.95;78.63
56040;BME280;43937;41.366;2.072;2023-07-29T05:08:09;100572.28;;;27.18;78.50
56040;BME280;43937;41.366;2.072;2023-07-29T05:10:35;100570.31;;;27.24;77.81
56040;BME280;43937;41.366;2.072;2023-07-29T05:13:00;100566.41;;;27.25;77.38
56040;BME280;43937;41.366;2.072;2023-07-29T05:15:25;100573.66;;;27.36;77.17
56040;BME280;43937;41.366;2.072;2023-07-29T05:17:51;100573.38;;;27.32;77.34
56040;BME280;43937;41.366;2.072;2023-07-29T05:20:16;100560.50;;;27.42;76.41
56040;BME280;43937;41.366;2.072;2023-07-29T05:22:42;100576.97;;;28.23;72.81
56040;BME280;43937;41.366;2.072;2023-07-29T05:25:07;100579.00;;;29.55;66.76
56040;BME280;43937;41.366;2.072;2023-07-29T05:27:33;100577.75;;;30.71;62.60
56040;BME280;43937;41.366;2.072;2023-07-29T05:29:59;100583.84;;;31.43;59.54
56040;BME280;43937;41.366;2.072;2023-07-29T05:32:24;100574.91;;;32.24;56.09
56040;BME280;43937;41.366;2.072;2023-07-29T05:34:49;100592.94;;;32.96;53.52
56040;BME280;43937;41.366;2.072;2023-07-29T05:37:15;100590.09;;;33.41;51.93
56040;BME280;43937;41.366;2.072;2023-07-29T05:39:41;100598.31;;;34.57;50.48
56040;BME280;43937;41.366;2.072;2023-07-29T05:42:06;100589.13;;;35.03;47.59
56040;BME280;43937;41.366;2.072;2023-07-29T05:44:33;100603.63;;;35.19;47.42
56040;BME280;43937;41.366;2.072;2023-07-29T05:46:58;100603.50;;;35.63;45.49
56040;BME280;43937;41.366;2.072;2023-07-29T05:49:24;100594.09;;;35.79;44.87
56040;BME280;43937;41.366;2.072;2023-07-29T05:51:49;100596.59;;;36.40;43.81
56040;BME280;43937;41.366;2.072;2023-07-29T05:54:18;100608.25;;;37.23;42.20
56040;BME280;43937;41.366;2.072;2023-07-29T05:56:43;100597.25;;;37.67;40.59
56040;BME280;43937;41.366;2.072;2023-07-29T05:59:09;100593.25;;;37.68;40.72
56040;BME280;43937;41.366;2.072;2023-07-29T06:01:34;100622.34;;;37.89;40.64
56040;BME280;43937;41.366;2.072;2023-07-29T06:04:00;100624.97;;;38.43;39.46
56040;BME280;43937;41.366;2.072;2023-07-29T06:06:25;100625.41;;;39.26;38.18
56040;BME280;43937;41.366;2.072;2023-07-29T06:08:51;100631.69;;;39.92;36.81
56040;BME280;43937;41.366;2.072;2023-07-29T06:11:16;100621.31;;;40.70;35.10
56040;BME280;43937;41.366;2.072;2023-07-29T06:13:42;100641.56;;;41.42;34.20
56040;BME280;43937;41.366;2.072;2023-07-29T06:16:07;100625.88;;;41.98;32.95
56040;BME280;43937;41.366;2.072;2023-07-29T06:18:33;100631.41;;;41.64;34.04
56040;BME280;43937;41.366;2.072;2023-07-29T06:20:58;100638.44;;;42.43;32.42
56040;BME280;43937;41.366;2.072;2023-07-29T06:23:24;100636.78;;;43.36;30.66
56040;BME280;43937;41.366;2.072;2023-07-29T06:25:49;100642.13;;;43.38;30.38
56040;BME280;43937;41.366;2.072;2023-07-29T06:28:14;100634.53;;;42.55;31.02
56040;BME280;43937;41.366;2.072;2023-07-29T06:30:40;100653.25;;;43.09;30.71
56040;BME280;43937;41.366;2.072;2023-07-29T06:33:05;100650.84;;;42.54;31.69
56040;BME280;43937;41.366;2.072;2023-07-29T06:35:31;100642.41;;;42.92;30.71
56040;BME280;43937;41.366;2.072;2023-07-29T06:37:56;100651.44;;;43.61;30.63
56040;BME280;43937;41.366;2.072;2023-07-29T06:40:22;100627.84;;;43.79;29.79
56040;BME280;43937;41.366;2.072;2023-07-29T06:42:47;100661.19;;;43.94;29.79
56040;BME280;43937;41.366;2.072;2023-07-29T06:45:13;100649.78;;;43.27;30.33
56040;BME280;43937;41.366;2.072;2023-07-29T06:47:38;100653.84;;;43.59;30.01
56040;BME280;43937;41.366;2.072;2023-07-29T06:50:04;100653.06;;;44.66;28.49
56040;BME280;43937;41.366;2.072;2023-07-29T06:53:55;100660.16;;;44.24;29.43
56040;BME280;43937;41.366;2.072;2023-07-29T06:56:20;100653.72;;;45.14;28.11
56040;BME280;43937;41.366;2.072;2023-07-29T06:58:46;100651.56;;;44.90;27.78
56040;BME280;43937;41.366;2.072;2023-07-29T07:01:11;100667.78;;;45.44;27.78
56040;BME280;43937;41.366;2.072;2023-07-29T07:03:36;100668.56;;;45.34;27.28
56040;BME280;43937;41.366;2.072;2023-07-29T07:06:02;100667.84;;;45.73;27.17
56040;BME280;43937;41.366;2.072;2023-07-29T07:08:28;100663.38;;;46.01;26.92
56040;BME280;43937;41.366;2.072;2023-07-29T07:10:55;100668.22;;;46.75;25.52
56040;BME280;43937;41.366;2.072;2023-07-29T07:13:21;100675.94;;;47.73;24.76
56040;BME280;43937;41.366;2.072;2023-07-29T07:17:29;100677.31;;;48.93;23.96
56040;BME280;43937;41.366;2.072;2023-07-29T07:19:54;100675.88;;;49.09;23.72
56040;BME280;43937;41.366;2.072;2023-07-29T07:22:20;100664.16;;;48.09;24.02
56040;BME280;43937;41.366;2.072;2023-07-29T07:24:45;100673.97;;;48.19;24.46
56040;BME280;43937;41.366;2.072;2023-07-29T07:27:10;100663.31;;;48.54;23.47
56040;BME280;43937;41.366;2.072;2023-07-29T07:29:36;100668.63;;;47.62;24.65
56040;BME280;43937;41.366;2.072;2023-07-29T07:32:01;100672.72;;;47.64;24.72
56040;BME280;43937;41.366;2.072;2023-07-29T07:34:27;100656.69;;;47.63;24.68
56040;BME280;43937;41.366;2.072;2023-07-29T07:36:53;100662.09;;;47.50;25.01
56040;BME280;43937;41.366;2.072;2023-07-29T07:39:18;100666.03;;;47.82;24.12
56040;BME280;43937;41.366;2.072;2023-07-29T07:41:44;100662.78;;;47.72;24.22
56040;BME280;43937;41.366;2.072;2023-07-29T07:44:09;100655.59;;;43.71;29.17
56040;BME280;43937;41.366;2.072;2023-07-29T07:46:36;100653.25;;;43.09;30.51
56040;BME280;43937;41.366;2.072;2023-07-29T07:49:01;100654.88;;;41.54;32.77
56040;BME280;43937;41.366;2.072;2023-07-29T07:51:27;100656.19;;;43.50;29.87
56040;BME280;43937;41.366;2.072;2023-07-29T07:53:52;100644.31;;;40.96;33.57
56040;BME280;43937;41.366;2.072;2023-07-29T07:57:37;100647.34;;;38.33;39.01
56040;BME280;43937;41.366;2.072;2023-07-29T08:00:02;100628.75;;;37.86;40.55
56040;BME280;43937;41.366;2.072;2023-07-29T08:02:29;100645.22;;;38.17;39.58
56040;BME280;43937;41.366;2.072;2023-07-29T08:04:55;100642.88;;;37.95;39.89
56040;BME280;43937;41.366;2.072;2023-07-29T08:07:20;100639.59;;;37.26;41.27
56040;BME280;43937;41.366;2.072;2023-07-29T08:09:46;100616.31;;;37.00;41.75
56040;BME280;43937;41.366;2.072;2023-07-29T08:12:11;100634.91;;;36.88;42.47
56040;BME280;43937;41.366;2.072;2023-07-29T08:14:37;100645.47;;;39.90;37.28
56040;BME280;43937;41.366;2.072;2023-07-29T08:17:02;100642.94;;;43.35;31.40
56040;BME280;43937;41.366;2.072;2023-07-29T08:19:28;100646.31;;;42.50;31.91
56040;BME280;43937;41.366;2.072;2023-07-29T08:21:53;100652.25;;;42.38;32.31
56040;BME280;43937;41.366;2.072;2023-07-29T08:24:19;100643.25;;;41.67;33.52
56040;BME280;43937;41.366;2.072;2023-07-29T08:26:44;100636.81;;;44.98;28.71
56040;BME280;43937;41.366;2.072;2023-07-29T08:29:10;100652.81;;;43.41;30.47
56040;BME280;43937;41.366;2.072;2023-07-29T08:31:36;100649.69;;;45.33;27.39
56040;BME280;43937;41.366;2.072;2023-07-29T08:34:01;100644.75;;;42.56;31.63
56040;BME280;43937;41.366;2.072;2023-07-29T08:36:26;100632.53;;;43.19;31.42
56040;BME280;43937;41.366;2.072;2023-07-29T08:38:52;100643.09;;;45.33;27.84
56040;BME280;43937;41.366;2.072;2023-07-29T08:41:32;100647.47;;;44.91;27.90
56040;BME280;43937;41.366;2.072;2023-07-29T08:44:23;100650.88;;;45.18;28.11
56040;BME280;43937;41.366;2.072;2023-07-29T08:46:49;100657.16;;;46.49;26.33
56040;BME280;43937;41.366;2.072;2023-07-29T08:49:16;100651.00;;;46.43;26.56
56040;BME280;43937;41.366;2.072;2023-07-29T08:51:46;100663.09;;;47.22;25.71
56040;BME280;43937;41.366;2.072;2023-07-29T08:54:13;100660.03;;;46.42;26.55
56040;BME280;43937;41.366;2.072;2023-07-29T08:56:41;100658.00;;;45.70;26.67
56040;BME280;43937;41.366;2.072;2023-07-29T08:59:10;100663.75;;;45.67;27.03
56040;BME280;43937;41.366;2.072;2023-07-29T09:01:38;100661.25;;;45.62;26.80
56040;BME280;43937;41.366;2.072;2023-07-29T09:04:03;100631.91;;;44.95;28.15
56040;BME280;43937;41.366;2.072;2023-07-29T09:06:31;100643.00;;;44.31;28.65
56040;BME280;43937;41.366;2.072;2023-07-29T09:08:56;100660.66;;;44.33;28.82
56040;BME280;43937;41.366;2.072;2023-07-29T09:11:23;100656.41;;;43.31;30.40
56040;BME280;43937;41.366;2.072;2023-07-29T09:13:49;100655.22;;;42.45;31.97
56040;BME280;43937;41.366;2.072;2023-07-29T09:16:14;100654.50;;;42.25;32.30
56040;BME280;43937;41.366;2.072;2023-07-29T09:18:40;100647.94;;;41.52;32.72
56040;BME280;43937;41.366;2.072;2023-07-29T09:21:05;100623.78;;;40.36;34.61
56040;BME280;43937;41.366;2.072;2023-07-29T09:23:44;100600.31;;;39.76;35.45
56040;BME280;43937;41.366;2.072;2023-07-29T09:26:10;100645.38;;;39.86;35.93
56040;BME280;43937;41.366;2.072;2023-07-29T09:28:37;100645.69;;;39.37;36.87
56040;BME280;43937;41.366;2.072;2023-07-29T09:31:04;100651.09;;;39.42;37.21
56040;BME280;43937;41.366;2.072;2023-07-29T09:33:33;100636.09;;;39.73;36.67
56040;BME280;43937;41.366;2.072;2023-07-29T09:36:02;100635.28;;;39.45;37.63
56040;BME280;43937;41.366;2.072;2023-07-29T09:38:28;100634.78;;;39.27;38.01
56040;BME280;43937;41.366;2.072;2023-07-29T09:40:57;100630.59;;;39.08;37.87
56040;BME280;43937;41.366;2.072;2023-07-29T09:43:31;100622.91;;;39.25;37.68
56040;BME280;43937;41.366;2.072;2023-07-29T09:46:04;100621.06;;;39.16;37.54
56040;BME280;43937;41.366;2.072;2023-07-29T09:48:34;100625.06;;;39.28;37.79
56040;BME280;43937;41.366;2.072;2023-07-29T09:51:03;100634.50;;;39.16;37.86
56040;BME280;43937;41.366;2.072;2023-07-29T09:53:39;100625.75;;;39.69;36.69
56040;BME280;43937;41.366;2.072;2023-07-29T09:56:05;100629.09;;;39.87;36.95
56040;BME280;43937;41.366;2.072;2023-07-29T09:58:30;100599.47;;;39.59;36.51
56040;BME280;43937;41.366;2.072;2023-07-29T10:00:58;100619.59;;;39.67;36.25
56040;BME280;43937;41.366;2.072;2023-07-29T10:03:23;100631.72;;;39.63;36.90
56040;BME280;43937;41.366;2.072;2023-07-29T10:05:50;100626.59;;;39.25;37.02
56040;BME280;43937;41.366;2.072;2023-07-29T10:08:16;100621.78;;;39.57;36.60
56040;BME280;43937;41.366;2.072;2023-07-29T10:10:43;100624.28;;;39.43;37.06
56040;BME280;43937;41.366;2.072;2023-07-29T10:13:09;100616.50;;;38.71;38.14
56040;BME280;43937;41.366;2.072;2023-07-29T10:15:35;100618.44;;;38.96;38.28
56040;BME280;43937;41.366;2.072;2023-07-29T10:18:01;100616.47;;;39.40;37.51
56040;BME280;43937;41.366;2.072;2023-07-29T10:20:30;100611.03;;;39.35;37.10
56040;BME280;43937;41.366;2.072;2023-07-29T10:22:59;100565.72;;;39.30;37.36
56040;BME280;43937;41.366;2.072;2023-07-29T10:25:30;100622.25;;;39.44;37.51
56040;BME280;43937;41.366;2.072;2023-07-29T10:28:05;100614.44;;;39.56;37.15
56040;BME280;43937;41.366;2.072;2023-07-29T10:30:31;100588.59;;;39.33;37.31
56040;BME280;43937;41.366;2.072;2023-07-29T10:32:58;100587.25;;;39.15;38.22
56040;BME280;43937;41.366;2.072;2023-07-29T10:35:24;100606.47;;;39.46;37.83
56040;BME280;43937;41.366;2.072;2023-07-29T10:37:51;100597.09;;;39.17;37.94
56040;BME280;43937;41.366;2.072;2023-07-29T10:40:18;100613.81;;;39.47;37.78
56040;BME280;43937;41.366;2.072;2023-07-29T10:43:02;100598.44;;;38.92;38.77
56040;BME280;43937;41.366;2.072;2023-07-29T10:45:36;100602.84;;;38.77;39.68
56040;BME280;43937;41.366;2.072;2023-07-29T10:48:11;100603.78;;;39.09;39.07
56040;BME280;43937;41.366;2.072;2023-07-29T10:50:37;100581.00;;;38.81;38.62
56040;BME280;43937;41.366;2.072;2023-07-29T10:53:03;100589.72;;;38.60;39.16
56040;BME280;43937;41.366;2.072;2023-07-29T10:55:32;100595.84;;;38.75;38.94
56040;BME280;43937;41.366;2.072;2023-07-29T10:58:10;100587.41;;;38.78;38.57
56040;BME280;43937;41.366;2.072;2023-07-29T11:00:36;100561.34;;;38.48;39.29
56040;BME280;43937;41.366;2.072;2023-07-29T11:03:04;100576.50;;;38.52;38.50
56040;BME280;43937;41.366;2.072;2023-07-29T11:05:49;100596.03;;;38.94;37.92
56040;BME280;43937;41.366;2.072;2023-07-29T11:08:29;100584.38;;;38.71;38.38
56040;BME280;43937;41.366;2.072;2023-07-29T11:11:07;100576.84;;;38.91;38.61
56040;BME280;43937;41.366;2.072;2023-07-29T11:13:35;100574.59;;;38.56;39.13
56040;BME280;43937;41.366;2.072;2023-07-29T11:16:01;100568.94;;;38.72;39.05
56040;BME280;43937;41.366;2.072;2023-07-29T11:18:31;100575.34;;;38.69;38.64
56040;BME280;43937;41.366;2.072;2023-07-29T11:20:58;100578.78;;;38.75;38.72
56040;BME280;43937;41.366;2.072;2023-07-29T11:23:29;100571.44;;;39.02;38.16
56040;BME280;43937;41.366;2.072;2023-07-29T11:25:55;100575.44;;;38.85;38.62
56040;BME280;43937;41.366;2.072;2023-07-29T11:28:20;100566.09;;;38.84;38.68
56040;BME280;43937;41.366;2.072;2023-07-29T11:30:47;100561.81;;;38.78;38.86
56040;BME280;43937;41.366;2.072;2023-07-29T11:33:17;100563.50;;;38.67;39.20
56040;BME280;43937;41.366;2.072;2023-07-29T11:35:43;100563.59;;;38.83;39.24
56040;BME280;43937;41.366;2.072;2023-07-29T11:38:17;100568.22;;;38.75;39.17
56040;BME280;43937;41.366;2.072;2023-07-29T11:40:53;100568.59;;;39.30;38.17
56040;BME280;43937;41.366;2.072;2023-07-29T11:43:19;100538.66;;;38.92;39.25
56040;BME280;43937;41.366;2.072;2023-07-29T11:45:44;100560.34;;;39.12;38.74
56040;BME280;43937;41.366;2.072;2023-07-29T11:48:10;100550.44;;;38.78;39.28
56040;BME280;43937;41.366;2.072;2023-07-29T11:50:35;100560.72;;;38.95;39.02
56040;BME280;43937;41.366;2.072;2023-07-29T11:54:08;100565.63;;;39.26;38.46
56040;BME280;43937;41.366;2.072;2023-07-29T11:56:35;100552.78;;;38.88;39.46
56040;BME280;43937;41.366;2.072;2023-07-29T11:59:01;100542.88;;;38.70;40.37
56040;BME280;43937;41.366;2.072;2023-07-29T12:01:28;100548.06;;;38.27;41.50
56040;BME280;43937;41.366;2.072;2023-07-29T12:03:55;100535.09;;;38.14;41.81
56040;BME280;43937;41.366;2.072;2023-07-29T12:06:23;100548.44;;;38.26;41.92
56040;BME280;43937;41.366;2.072;2023-07-29T12:08:50;100545.38;;;38.43;41.66
56040;BME280;43937;41.366;2.072;2023-07-29T12:11:16;100546.44;;;38.67;41.50
56040;BME280;43937;41.366;2.072;2023-07-29T12:13:43;100535.97;;;38.43;41.26
56040;BME280;43937;41.366;2.072;2023-07-29T12:16:08;100508.28;;;38.40;41.30
56040;BME280;43937;41.366;2.072;2023-07-29T12:18:34;100528.09;;;38.64;41.17
56040;BME280;43937;41.366;2.072;2023-07-29T12:21:01;100531.81;;;38.81;40.48
56040;BME280;43937;41.366;2.072;2023-07-29T12:23:28;100525.47;;;38.31;41.40
56040;BME280;43937;41.366;2.072;2023-07-29T12:25:58;100509.03;;;38.12;41.96
56040;BME280;43937;41.366;2.072;2023-07-29T12:28:25;100519.66;;;38.27;42.43
56040;BME280;43937;41.366;2.072;2023-07-29T12:30:54;100525.66;;;37.98;43.00
56040;BME280;43937;41.366;2.072;2023-07-29T12:33:48;100519.84;;;37.94;42.90
56040;BME280;43937;41.366;2.072;2023-07-29T12:36:14;100524.47;;;37.87;42.82
56040;BME280;43937;41.366;2.072;2023-07-29T12:38:42;100507.75;;;37.97;43.06
56040;BME280;43937;41.366;2.072;2023-07-29T12:41:08;100520.75;;;38.23;42.46
56040;BME280;43937;41.366;2.072;2023-07-29T12:43:33;100516.94;;;38.43;42.13
56040;BME280;43937;41.366;2.072;2023-07-29T12:46:00;100519.00;;;38.06;42.84
56040;BME280;43937;41.366;2.072;2023-07-29T12:48:25;100477.81;;;37.88;42.76
56040;BME280;43937;41.366;2.072;2023-07-29T12:50:51;100494.41;;;37.98;42.99
56040;BME280;43937;41.366;2.072;2023-07-29T12:53:16;100514.13;;;38.07;42.80
56040;BME280;43937;41.366;2.072;2023-07-29T12:55:43;100487.75;;;37.94;42.98
56040;BME280;43937;41.366;2.072;2023-07-29T12:58:08;100511.31;;;37.70;43.81
56040;BME280;43937;41.366;2.072;2023-07-29T13:00:34;100509.09;;;37.51;44.23
56040;BME280;43937;41.366;2.072;2023-07-29T13:02:59;100513.31;;;37.81;43.18